createdAt,value
2018-07-17T00:01:48.200Z,100875.03
2018-07-17T00:04:17.050Z,100879.24
2018-07-17T00:06:45.882Z,100879.47
2018-07-17T00:09:14.729Z,100877.79
2018-07-17T00:11:43.588Z,100868.95
2018-07-17T00:14:12.396Z,100876.16
2018-07-17T00:16:41.228Z,100873.10
2018-07-17T00:19:10.048Z,100870.45
2018-07-17T00:21:38.880Z,100871.72
2018-07-17T00:24:07.828Z,100873.31
2018-07-17T00:26:36.691Z,100872.36
2018-07-17T00:29:05.554Z,100867.36
2018-07-17T00:31:34.661Z,100866.64
2018-07-17T00:34:03.499Z,100865.45
2018-07-17T00:36:32.326Z,100859.19
2018-07-17T00:39:01.174Z,100862.16
2018-07-17T00:41:30.030Z,100856.84
2018-07-17T00:43:58.846Z,100853.59
2018-07-17T00:47:03.469Z,100844.14
2018-07-17T00:49:32.288Z,100845.20
2018-07-17T00:52:01.130Z,100842.77
2018-07-17T00:54:29.973Z,100840.53
2018-07-17T00:56:58.835Z,100827.98
2018-07-17T00:59:27.661Z,100824.30
2018-07-17T01:02:14.238Z,100821.72
2018-07-17T01:05:01.051Z,100822.07
2018-07-17T01:07:47.623Z,100817.52
2018-07-17T01:10:34.402Z,100819.94
2018-07-17T01:13:02.429Z,100815.91
2018-07-17T01:15:37.119Z,100820.77
2018-07-17T01:18:05.989Z,100821.24
2018-07-17T01:20:34.872Z,100819.81
2018-07-17T01:23:03.715Z,100823.22
2018-07-17T01:25:32.526Z,100827.56
2018-07-17T01:28:57.859Z,100819.09
2018-07-17T01:31:26.699Z,100817.08
2018-07-17T01:33:55.545Z,100811.11
2018-07-17T01:36:24.405Z,100807.22
2018-07-17T01:38:53.230Z,100799.80
2018-07-17T01:41:22.070Z,100797.89
2018-07-17T01:43:50.911Z,100799.02
2018-07-17T01:46:19.785Z,100796.27
2018-07-17T01:48:48.643Z,100791.81
2018-07-17T01:51:17.636Z,100794.81
2018-07-17T01:53:46.520Z,100795.55
2018-07-17T01:56:15.359Z,100794.16
2018-07-17T01:58:44.216Z,100795.75
2018-07-17T02:01:13.057Z,100800.41
2018-07-17T02:03:41.890Z,100793.52
2018-07-17T02:06:10.720Z,100794.25
2018-07-17T02:08:39.560Z,100793.50
2018-07-17T02:11:08.400Z,100789.30
2018-07-17T02:13:37.599Z,100788.53
2018-07-17T02:16:06.482Z,100788.21
2018-07-17T02:18:35.318Z,100790.86
2018-07-17T02:21:04.161Z,100787.14
2018-07-17T02:23:32.980Z,100786.30
2018-07-17T02:26:01.860Z,100795.42
2018-07-17T02:28:30.693Z,100785.33
2018-07-17T02:30:59.548Z,100784.28
2018-07-17T02:33:28.372Z,100787.48
2018-07-17T02:35:57.410Z,100791.49
2018-07-17T02:38:26.232Z,100796.16
2018-07-17T02:40:55.205Z,100796.24
2018-07-17T02:43:24.066Z,100800.46
2018-07-17T02:45:52.981Z,100805.68
2018-07-17T02:48:21.759Z,100805.77
2018-07-17T02:50:50.600Z,100809.17
2018-07-17T02:53:19.452Z,100801.23
2018-07-17T02:55:48.275Z,100794.03
2018-07-17T02:58:17.221Z,100780.05
2018-07-17T03:00:46.146Z,100772.95
2018-07-17T03:03:14.985Z,100772.85
2018-07-17T03:05:43.826Z,100773.70
2018-07-17T03:08:12.657Z,100774.23
2018-07-17T03:10:41.548Z,100782.30
2018-07-17T03:13:10.390Z,100780.48
2018-07-17T03:15:39.269Z,100773.28
2018-07-17T03:18:08.158Z,100771.05
2018-07-17T03:20:43.194Z,100774.02
2018-07-17T03:23:12.029Z,100770.49
2018-07-17T03:25:40.855Z,100769.23
2018-07-17T03:28:09.688Z,100774.55
2018-07-17T03:30:38.547Z,100774.31
2018-07-17T03:33:07.756Z,100777.19
2018-07-17T03:35:36.740Z,100777.16
2018-07-17T03:38:05.927Z,100776.92
2018-07-17T03:40:34.794Z,100780.28
2018-07-17T03:44:10.688Z,100790.73
2018-07-17T03:46:39.540Z,100794.13
2018-07-17T03:49:08.386Z,100820.10
2018-07-17T03:51:37.243Z,100818.48
2018-07-17T03:54:06.315Z,100818.28
2018-07-17T03:56:35.167Z,100822.19
2018-07-17T03:59:04.012Z,100829.99
2018-07-17T04:01:32.864Z,100838.55
2018-07-17T04:04:01.714Z,100841.20
2018-07-17T04:06:30.558Z,100844.77
2018-07-17T04:08:59.380Z,100847.23
2018-07-17T04:11:28.247Z,100839.41
2018-07-17T04:13:57.059Z,100840.17
2018-07-17T04:16:25.902Z,100841.55
2018-07-17T04:18:54.717Z,100846.13
2018-07-17T04:21:23.521Z,100852.78
2018-07-17T04:23:52.363Z,100845.30
2018-07-17T04:26:21.184Z,100847.97
2018-07-17T04:28:50.097Z,100846.28
2018-07-17T04:31:19.436Z,100842.27
2018-07-17T04:33:48.446Z,100847.34
2018-07-17T04:36:17.285Z,100847.94
2018-07-17T04:38:46.089Z,100848.06
2018-07-17T04:41:15.077Z,100846.05
2018-07-17T04:43:43.920Z,100844.47
2018-07-17T04:46:12.742Z,100836.97
2018-07-17T04:48:50.101Z,100841.42
2018-07-17T04:51:18.931Z,100839.52
2018-07-17T04:53:47.783Z,100836.64
2018-07-17T04:56:16.593Z,100847.38
2018-07-17T04:58:45.438Z,100833.39
2018-07-17T05:01:14.259Z,100838.91
2018-07-17T05:03:43.153Z,100836.14
2018-07-17T05:06:11.980Z,100842.21
2018-07-17T05:08:40.820Z,100845.43
2018-07-17T05:11:27.360Z,100844.22
2018-07-17T05:13:56.238Z,100846.79
2018-07-17T05:16:25.108Z,100847.53
2018-07-17T05:18:53.928Z,100849.97
2018-07-17T05:21:22.777Z,100849.97
2018-07-17T05:23:51.603Z,100854.66
2018-07-17T05:26:20.463Z,100849.65
2018-07-17T05:28:49.376Z,100854.94
2018-07-17T05:31:18.162Z,100856.52
2018-07-17T05:33:47.109Z,100858.30
2018-07-17T05:36:15.938Z,100856.45
2018-07-17T05:38:44.781Z,100860.27
2018-07-17T05:41:13.624Z,100858.89
2018-07-17T05:43:42.474Z,100858.32
2018-07-17T05:46:11.296Z,100865.33
2018-07-17T05:48:40.170Z,100870.64
2018-07-17T05:51:08.994Z,100871.88
2018-07-17T05:53:37.821Z,100868.75
2018-07-17T05:56:06.760Z,100869.84
2018-07-17T05:58:35.609Z,100871.91
2018-07-17T06:01:04.432Z,100873.03
2018-07-17T06:03:33.302Z,100865.83
2018-07-17T06:06:02.156Z,100873.63
2018-07-17T06:08:31.056Z,100870.87
2018-07-17T06:10:59.830Z,100879.92
2018-07-17T06:13:28.668Z,100877.17
2018-07-17T06:15:57.491Z,100874.89
2018-07-17T06:18:29.459Z,100866.44
2018-07-17T06:20:58.391Z,100873.55
2018-07-17T06:23:27.156Z,100876.39
2018-07-17T06:25:55.982Z,100869.61
2018-07-17T06:28:24.924Z,100876.97
2018-07-17T06:30:53.757Z,100877.45
2018-07-17T06:33:22.598Z,100878.16
2018-07-17T06:35:51.430Z,100879.92
2018-07-17T06:38:20.276Z,100881.37
2018-07-17T06:41:07.054Z,100880.02
2018-07-17T06:43:35.896Z,100883.75
2018-07-17T06:46:05.100Z,100887.05
2018-07-17T06:48:34.094Z,100888.80
2018-07-17T06:51:03.025Z,100888.70
2018-07-17T06:53:31.878Z,100891.56
2018-07-17T06:56:00.707Z,100890.36
2018-07-17T06:58:29.537Z,100889.99
2018-07-17T07:00:58.379Z,100892.42
2018-07-17T07:03:30.388Z,100892.73
2018-07-17T07:05:59.212Z,100901.19
2018-07-17T07:08:28.059Z,100898.73
2018-07-17T07:10:56.905Z,100890.97
2018-07-17T07:13:25.727Z,100897.77
2018-07-17T07:15:54.520Z,100902.50
2018-07-17T07:18:23.369Z,100904.14
2018-07-17T07:20:52.192Z,100904.80
2018-07-17T07:23:21.060Z,100907.73
2018-07-17T07:25:49.858Z,100898.27
2018-07-17T07:28:18.701Z,100901.18
2018-07-17T07:30:47.556Z,100900.36
2018-07-17T07:33:16.373Z,100897.17
2018-07-17T07:35:45.196Z,100894.80
2018-07-17T07:38:14.008Z,100903.38
2018-07-17T07:40:42.833Z,100906.56
2018-07-17T07:43:11.703Z,100907.00
2018-07-17T07:45:40.534Z,100898.00
2018-07-17T07:48:27.266Z,100900.70
2018-07-17T07:50:56.089Z,100900.80
2018-07-17T07:53:24.910Z,100897.67
2018-07-17T07:55:53.756Z,100897.52
2018-07-17T07:58:22.650Z,100898.48
2018-07-17T08:00:51.416Z,100898.14
2018-07-17T08:03:20.298Z,100897.15
2018-07-17T08:05:49.176Z,100901.22
2018-07-17T08:08:18.021Z,100907.80
2018-07-17T08:10:47.041Z,100905.34
2018-07-17T08:13:15.990Z,100905.63
2018-07-17T08:15:44.804Z,100896.89
2018-07-17T08:18:13.643Z,100900.64
2018-07-17T08:20:42.541Z,100899.73
2018-07-17T08:23:11.366Z,100901.17
2018-07-17T08:25:40.205Z,100903.50
2018-07-17T08:28:09.037Z,100902.31
2018-07-17T08:30:38.041Z,100901.86
2018-07-17T08:33:06.900Z,100899.93
2018-07-17T08:35:35.728Z,100907.45
2018-07-17T08:38:04.566Z,100917.77
2018-07-17T08:40:33.385Z,100913.36
2018-07-17T08:43:02.216Z,100917.45
2018-07-17T08:45:31.082Z,100921.30
2018-07-17T08:47:59.883Z,100915.58
2018-07-17T08:50:28.724Z,100922.46
2018-07-17T08:52:57.541Z,100919.45
2018-07-17T08:55:26.366Z,100923.29
2018-07-17T08:57:55.286Z,100935.70
2018-07-17T09:00:24.178Z,100929.85
2018-07-17T09:02:52.955Z,100928.39
2018-07-17T09:05:21.796Z,100929.16
2018-07-17T09:07:50.669Z,100925.55
2018-07-17T09:10:19.477Z,100931.59
2018-07-17T09:12:48.334Z,100931.19
2018-07-17T09:15:17.190Z,100930.75
2018-07-17T09:17:46.035Z,100923.85
2018-07-17T09:20:14.880Z,100920.89
2018-07-17T09:22:43.700Z,100931.33
2018-07-17T09:25:12.592Z,100934.80
2018-07-17T09:27:41.428Z,100940.58
2018-07-17T09:30:10.264Z,100943.34
2018-07-17T09:32:39.084Z,100939.72
2018-07-17T09:35:07.950Z,100933.86
2018-07-17T09:38:32.400Z,100941.45
2018-07-17T09:41:01.251Z,100947.38
2018-07-17T09:43:30.087Z,100941.91
2018-07-17T09:45:58.913Z,100947.48
2018-07-17T09:48:27.754Z,100950.07
2018-07-17T09:50:56.585Z,100950.84
2018-07-17T09:53:25.398Z,100958.17
2018-07-17T09:55:54.217Z,100948.58
2018-07-17T09:58:23.076Z,100948.08
2018-07-17T10:01:11.026Z,100941.78
2018-07-17T10:03:39.925Z,100947.25
2018-07-17T10:06:08.786Z,100960.58
2018-07-17T10:08:37.597Z,100964.20
2018-07-17T10:11:06.483Z,100962.85
2018-07-17T10:13:35.292Z,100960.29
2018-07-17T10:16:04.138Z,100967.20
2018-07-17T10:18:33.068Z,100968.62
2018-07-17T10:21:05.126Z,100959.72
2018-07-17T10:23:34.001Z,100976.38
2018-07-17T10:26:02.808Z,100975.53
2018-07-17T10:28:31.621Z,100971.28
2018-07-17T10:31:00.462Z,100975.86
2018-07-17T10:33:29.332Z,100971.47
2018-07-17T10:35:58.160Z,100972.50
2018-07-17T10:38:26.991Z,100970.80
2018-07-17T10:40:55.830Z,100986.55
2018-07-17T10:43:25.160Z,100985.73
2018-07-17T10:45:54.003Z,100981.52
2018-07-17T10:48:23.216Z,100979.84
2018-07-17T10:50:52.039Z,100986.03
2018-07-17T10:53:21.059Z,100983.40
2018-07-17T10:55:49.937Z,100988.74
2018-07-17T10:58:18.835Z,100983.84
2018-07-17T11:00:47.664Z,100988.20
2018-07-17T11:03:16.580Z,100988.28
2018-07-17T11:05:45.573Z,100990.43
2018-07-17T11:08:14.508Z,100995.47
2018-07-17T11:10:43.322Z,100984.56
2018-07-17T11:13:12.160Z,100988.91
2018-07-17T11:15:41.036Z,100980.05
2018-07-17T11:18:09.881Z,100988.93
2018-07-17T11:20:38.746Z,100984.52
2018-07-17T11:23:07.615Z,100982.89
2018-07-17T11:25:36.464Z,100981.44
2018-07-17T11:28:05.642Z,100977.77
2018-07-17T11:30:34.561Z,100985.34
2018-07-17T11:33:03.301Z,100988.31
2018-07-17T11:35:32.128Z,100987.55
2018-07-17T11:38:00.976Z,100979.27
2018-07-17T11:40:29.838Z,100989.39
2018-07-17T11:42:58.668Z,100981.53
2018-07-17T11:45:27.531Z,100988.59
2018-07-17T11:47:56.523Z,100982.91
2018-07-17T11:50:25.264Z,100983.33
2018-07-17T11:52:54.136Z,100987.23
2018-07-17T11:55:22.998Z,100975.34
2018-07-17T11:57:51.828Z,100983.73
2018-07-17T12:00:20.678Z,100991.97
2018-07-17T12:02:49.514Z,100993.52
2018-07-17T12:05:18.384Z,100991.23
2018-07-17T12:07:47.217Z,100987.67
2018-07-17T12:10:16.136Z,100978.63
2018-07-17T12:12:45.064Z,100975.30
2018-07-17T12:15:13.848Z,100982.13
2018-07-17T12:17:42.714Z,100990.42
2018-07-17T12:20:12.149Z,100996.13
2018-07-17T12:22:40.844Z,100986.86
2018-07-17T12:25:09.670Z,100994.39
2018-07-17T12:27:38.520Z,100981.32
2018-07-17T12:30:07.488Z,100986.07
2018-07-17T12:32:36.347Z,100996.78
2018-07-17T12:35:14.017Z,100991.47
2018-07-17T12:37:42.939Z,100997.76
2018-07-17T12:40:11.747Z,101010.40
2018-07-17T12:42:40.614Z,100993.99
2018-07-17T12:45:09.489Z,100996.98
2018-07-17T12:47:38.302Z,101004.00
2018-07-17T12:50:07.411Z,101001.75
2018-07-17T12:52:36.280Z,101011.98
2018-07-17T12:55:05.166Z,101014.33
2018-07-17T12:57:36.916Z,101002.98
2018-07-17T13:00:05.777Z,101002.14
2018-07-17T13:02:34.665Z,100998.31
2018-07-17T13:05:03.483Z,100994.04
2018-07-17T13:07:32.384Z,101002.70
2018-07-17T13:10:01.256Z,100997.94
2018-07-17T13:12:30.067Z,100991.70
2018-07-17T13:14:58.931Z,101001.69
2018-07-17T13:17:27.872Z,100994.73
2018-07-17T13:20:04.624Z,100989.05
2018-07-17T13:22:33.446Z,100998.45
2018-07-17T13:25:02.381Z,100989.62
2018-07-17T13:27:31.240Z,100978.59
2018-07-17T13:30:00.131Z,100996.85
2018-07-17T13:32:29.039Z,100994.98
2018-07-17T13:34:57.922Z,100994.95
2018-07-17T13:37:26.755Z,101000.84
2018-07-17T13:39:55.855Z,100993.20
2018-07-17T13:42:24.810Z,101005.31
2018-07-17T13:44:53.716Z,100997.38
2018-07-17T13:47:22.451Z,100996.36
2018-07-17T13:49:51.294Z,101001.41
2018-07-17T13:52:20.218Z,100997.98
2018-07-17T13:54:49.098Z,100988.98
2018-07-17T13:57:17.933Z,100982.25
2018-07-17T13:59:46.792Z,100996.64
2018-07-17T14:02:15.641Z,100995.81
2018-07-17T14:04:44.455Z,100987.73
2018-07-17T14:07:13.257Z,101010.18
2018-07-17T14:09:42.127Z,101005.70
2018-07-17T14:12:11.149Z,101005.38
2018-07-17T14:14:39.972Z,101006.79
2018-07-17T14:17:08.837Z,100995.23
2018-07-17T14:19:37.680Z,100990.67
2018-07-17T14:22:06.505Z,100996.06
2018-07-17T14:24:35.332Z,100996.09
2018-07-17T14:27:22.045Z,101003.06
2018-07-17T14:29:50.903Z,100990.36
2018-07-17T14:32:19.779Z,100997.72
2018-07-17T14:34:48.661Z,100998.02
2018-07-17T14:37:17.535Z,100986.52
2018-07-17T14:39:46.348Z,100995.67
2018-07-17T14:42:15.182Z,101000.02
2018-07-17T14:44:43.996Z,100993.84
2018-07-17T14:47:12.835Z,100986.97
2018-07-17T14:49:41.724Z,100994.41
2018-07-17T14:52:10.568Z,100989.28
2018-07-17T14:54:39.393Z,100991.02
2018-07-17T14:57:08.208Z,100988.78
2018-07-17T14:59:37.049Z,100982.82
2018-07-17T15:02:05.896Z,100983.98
2018-07-17T15:04:34.745Z,100992.75
2018-07-17T15:07:03.570Z,100990.89
2018-07-17T15:09:32.468Z,100990.04
2018-07-17T15:15:30.802Z,101005.63
2018-07-17T15:17:59.620Z,101003.27
2018-07-17T15:20:28.438Z,101001.11
2018-07-17T15:22:57.291Z,101012.69
2018-07-17T15:25:26.120Z,101003.38
2018-07-17T15:27:55.074Z,101001.41
2018-07-17T15:30:23.888Z,100997.19
2018-07-17T15:32:52.729Z,101001.04
2018-07-17T15:35:22.017Z,101005.78
2018-07-17T15:37:50.844Z,100997.02
2018-07-17T15:40:19.650Z,101007.68
2018-07-17T15:42:48.499Z,101017.97
2018-07-17T15:45:17.381Z,101027.12
2018-07-17T15:47:46.162Z,101011.69
2018-07-17T15:50:15.023Z,101020.55
2018-07-17T15:52:43.855Z,101028.38
2018-07-17T15:55:12.731Z,101022.28
2018-07-17T15:57:41.678Z,101027.42
2018-07-17T16:00:10.551Z,101035.12
2018-07-17T16:02:39.363Z,101038.55
2018-07-17T16:05:08.260Z,101043.97
2018-07-17T16:07:37.202Z,101029.77
2018-07-17T16:10:06.198Z,101044.23
2018-07-17T16:12:34.925Z,101053.55
2018-07-17T16:15:04.216Z,101048.17
2018-07-17T16:17:33.011Z,101055.34
2018-07-17T16:23:48.830Z,101056.14
2018-07-17T16:26:17.698Z,101053.25
2018-07-17T16:28:46.544Z,101050.03
2018-07-17T16:31:15.397Z,101052.95
2018-07-17T16:33:44.250Z,101050.56
2018-07-17T16:36:13.272Z,101055.26
2018-07-17T16:38:42.107Z,101075.20
2018-07-17T16:41:10.981Z,101061.49
2018-07-17T16:43:39.805Z,101058.57
2018-07-17T16:46:11.691Z,101060.70
2018-07-17T16:48:40.632Z,101066.75
2018-07-17T16:51:09.474Z,101065.97
2018-07-17T16:53:38.291Z,101057.62
2018-07-17T16:56:07.173Z,101074.17
2018-07-17T16:58:35.959Z,101079.22
2018-07-17T17:01:04.811Z,101075.00
2018-07-17T17:03:33.672Z,101078.39
2018-07-17T17:06:02.533Z,101082.56
2018-07-17T17:08:34.496Z,101077.28
2018-07-17T17:11:03.342Z,101075.55
2018-07-17T17:13:32.165Z,101081.77
2018-07-17T17:16:00.992Z,101080.20
2018-07-17T17:18:29.857Z,101085.22
2018-07-17T17:20:58.782Z,101077.94
2018-07-17T17:23:27.596Z,101079.31
2018-07-17T17:25:56.436Z,101079.78
2018-07-17T17:28:25.297Z,101082.50
2018-07-17T17:30:55.319Z,101073.73
2018-07-17T17:33:24.106Z,101075.28
2018-07-17T17:35:53.004Z,101083.39
2018-07-17T17:38:21.832Z,101086.95
2018-07-17T17:40:50.679Z,101085.23
2018-07-17T17:43:19.540Z,101087.81
2018-07-17T17:45:48.408Z,101089.23
2018-07-17T17:48:17.247Z,101094.05
2018-07-17T17:50:46.115Z,101100.33
2018-07-17T17:53:15.160Z,101103.55
2018-07-17T17:55:44.021Z,101110.55
2018-07-17T17:58:12.915Z,101111.94
2018-07-17T18:00:41.762Z,101113.20
2018-07-17T18:03:10.684Z,101113.41
2018-07-17T18:05:40.141Z,101124.11
2018-07-17T18:08:09.099Z,101127.53
2018-07-17T18:10:37.966Z,101134.14
2018-07-17T18:13:07.000Z,101129.91
2018-07-17T18:15:41.911Z,101130.14
2018-07-17T18:18:10.786Z,101145.03
2018-07-17T18:20:39.860Z,101144.95
2018-07-17T18:23:08.680Z,101146.73
2018-07-17T18:28:18.831Z,101160.94
2018-07-17T18:30:47.660Z,101164.87
2018-07-17T18:33:16.487Z,101174.09
2018-07-17T18:35:45.328Z,101182.64
2018-07-17T18:38:14.180Z,101186.41
2018-07-17T18:40:43.033Z,101189.27
2018-07-17T18:43:12.750Z,101195.45
2018-07-17T18:45:41.848Z,101197.60
2018-07-17T18:48:12.002Z,101205.20
2018-07-17T18:50:40.782Z,101205.69
2018-07-17T18:53:09.627Z,101207.48
2018-07-17T18:55:38.477Z,101215.00
2018-07-17T18:58:07.309Z,101217.45
2018-07-17T19:00:36.206Z,101219.38
2018-07-17T19:03:05.063Z,101221.08
2018-07-17T19:05:33.921Z,101218.84
2018-07-17T19:08:02.873Z,101220.60
2018-07-17T19:10:39.987Z,101227.30
2018-07-17T19:13:08.873Z,101218.62
2018-07-17T19:15:37.846Z,101222.52
2018-07-17T19:18:06.573Z,101233.13
2018-07-17T19:20:35.435Z,101238.56
2018-07-17T19:23:04.315Z,101238.42
2018-07-17T19:25:33.206Z,101244.29
2018-07-17T19:28:02.059Z,101246.10
2018-07-17T19:30:30.924Z,101247.09
2018-07-17T19:33:01.204Z,101245.31
2018-07-17T19:35:30.152Z,101248.83
2018-07-17T19:37:59.229Z,101250.03
2018-07-17T19:40:28.084Z,101249.83
2018-07-17T19:42:57.094Z,101250.28
2018-07-17T19:45:25.951Z,101248.48
2018-07-17T19:47:54.857Z,101245.91
2018-07-17T19:50:23.785Z,101256.65
2018-07-17T19:52:52.736Z,101254.95
2018-07-17T19:55:24.834Z,101266.23
2018-07-17T19:57:53.789Z,101259.61
2018-07-17T20:00:22.629Z,101266.08
2018-07-17T20:02:51.502Z,101267.55
2018-07-17T20:05:23.362Z,101269.12
2018-07-17T20:07:52.350Z,101268.34
2018-07-17T20:10:21.124Z,101266.84
2018-07-17T20:12:49.969Z,101269.68
2018-07-17T20:15:18.881Z,101276.38
2018-07-17T20:17:47.761Z,101278.88
2018-07-17T20:20:16.588Z,101274.93
2018-07-17T20:22:45.455Z,101283.41
2018-07-17T20:25:14.350Z,101283.74
2018-07-17T20:27:43.225Z,101282.77
2018-07-17T20:30:12.292Z,101290.39
2018-07-17T20:32:41.111Z,101289.28
2018-07-17T20:35:09.957Z,101293.63
2018-07-17T20:37:45.209Z,101287.03
2018-07-17T20:40:14.056Z,101292.19
2018-07-17T20:42:42.909Z,101296.72
2018-07-17T20:45:11.737Z,101296.84
2018-07-17T20:47:40.576Z,101294.15
2018-07-17T20:50:09.396Z,101294.87
2018-07-17T20:52:38.325Z,101299.64
2018-07-17T20:55:07.125Z,101302.72
2018-07-17T20:57:35.935Z,101301.18
2018-07-17T21:00:05.522Z,101304.52
2018-07-17T21:02:34.440Z,101303.86
2018-07-17T21:05:03.392Z,101310.70
2018-07-17T21:07:32.096Z,101307.23
2018-07-17T21:10:00.957Z,101314.84
2018-07-17T21:12:29.833Z,101317.36
2018-07-17T21:14:58.657Z,101313.13
2018-07-17T21:17:27.505Z,101314.33
2018-07-17T21:19:56.350Z,101312.80
2018-07-17T21:22:25.216Z,101317.84
2018-07-17T21:24:54.077Z,101316.36
2018-07-17T21:27:22.888Z,101315.98
2018-07-17T21:29:51.799Z,101317.49
2018-07-17T21:32:20.738Z,101317.53
2018-07-17T21:34:49.576Z,101325.21
2018-07-17T21:37:18.436Z,101318.85
2018-07-17T21:39:47.270Z,101325.55
2018-07-17T21:42:16.117Z,101326.48
2018-07-17T21:44:48.289Z,101324.36
2018-07-17T21:47:17.102Z,101332.08
2018-07-17T21:49:46.042Z,101327.35
2018-07-17T21:52:15.132Z,101329.55
2018-07-17T21:54:44.184Z,101323.94
2018-07-17T21:57:13.040Z,101331.97
2018-07-17T21:59:41.867Z,101336.54
2018-07-17T22:02:10.813Z,101338.11
2018-07-17T22:04:39.622Z,101340.59
2018-07-17T22:07:26.341Z,101338.27
2018-07-17T22:09:55.184Z,101341.61
2018-07-17T22:12:24.017Z,101346.34
2018-07-17T22:14:52.878Z,101346.07
2018-07-17T22:17:21.753Z,101342.89
2018-07-17T22:19:50.571Z,101344.78
2018-07-17T22:22:19.438Z,101352.85
2018-07-17T22:24:48.273Z,101347.22
2018-07-17T22:27:17.153Z,101345.23
2018-07-17T22:29:45.984Z,101338.02
2018-07-17T22:32:14.850Z,101347.72
2018-07-17T22:34:43.704Z,101352.05
2018-07-17T22:37:12.638Z,101347.30
2018-07-17T22:39:41.399Z,101350.12
2018-07-17T22:42:10.235Z,101347.59
2018-07-17T22:44:39.070Z,101353.86
2018-07-17T22:47:07.892Z,101350.97
2018-07-17T22:49:36.920Z,101352.90
2018-07-17T22:52:05.749Z,101343.14
2018-07-17T22:54:34.665Z,101355.37
2018-07-17T22:57:03.446Z,101353.20
2018-07-17T22:59:32.288Z,101357.62
2018-07-17T23:02:01.183Z,101360.93
2018-07-17T23:04:29.977Z,101355.83
2018-07-17T23:06:58.783Z,101361.67
2018-07-17T23:09:27.592Z,101353.78
2018-07-17T23:11:59.649Z,101358.81
2018-07-17T23:14:28.419Z,101359.66
2018-07-17T23:16:57.263Z,101352.13
2018-07-17T23:19:26.109Z,101355.73
2018-07-17T23:21:54.941Z,101351.64
2018-07-17T23:24:23.753Z,101351.52
2018-07-17T23:26:52.621Z,101354.27
2018-07-17T23:29:21.439Z,101350.84
2018-07-17T23:31:50.258Z,101348.11
2018-07-17T23:34:22.141Z,101344.51
2018-07-17T23:36:50.980Z,101344.03
2018-07-17T23:39:19.857Z,101349.55
2018-07-17T23:41:48.679Z,101346.12
2018-07-17T23:44:17.525Z,101354.52
2018-07-17T23:46:46.356Z,101351.57
2018-07-17T23:49:32.725Z,101353.14
2018-07-17T23:52:01.532Z,101356.20
2018-07-17T23:54:39.259Z,101350.62
2018-07-17T23:57:08.092Z,101349.63
2018-07-17T23:59:36.949Z,101352.03
